Time;durP1;ratioP1;P1;durP2;ratioP2;P2;SDS_P1;SDS_P2;PMS_P1;PMS_P2;Temp;Humidity;BMP_temperature;BMP_pressure;BME280_temperature;BME280_humidity;BME280_pressure;Samples;Min_cycle;Max_cycle;Signal;HPM_P1;HPM_P2
2021/09/21 00:00:04;;;;;;;5.70;1.70;;;6.20;99.90;;;;;;5008844;28;20048;-83
2021/09/21 00:02:31;;;;;;;5.53;1.73;;;6.10;99.90;;;;;;5008921;28;20052;-82
2021/09/21 00:04:58;;;;;;;2.65;1.50;;;6.10;99.90;;;;;;5006288;28;20077;-82
2021/09/21 00:07:25;;;;;;;6.18;1.52;;;6.10;99.90;;;;;;5009311;28;20116;-82
2021/09/21 00:09:53;;;;;;;2.03;1.50;;;6.00;99.90;;;;;;5009915;28;20065;-82
2021/09/21 00:12:19;;;;;;;2.70;1.48;;;6.00;99.90;;;;;;5030681;28;20045;-82
2021/09/21 00:14:47;;;;;;;3.90;1.33;;;6.00;99.90;;;;;;5008565;28;20144;-82
2021/09/21 00:17:13;;;;;;;1.52;1.15;;;5.90;99.90;;;;;;5022238;28;20037;-82
2021/09/21 00:19:40;;;;;;;3.83;1.23;;;5.90;99.90;;;;;;5009910;28;20140;-82
2021/09/21 00:22:07;;;;;;;3.40;1.77;;;5.80;99.90;;;;;;5004808;28;20119;-82
2021/09/21 00:24:35;;;;;;;2.92;1.90;;;5.80;99.90;;;;;;5005352;28;20092;-82
2021/09/21 00:27:02;;;;;;;3.38;1.90;;;5.70;99.90;;;;;;5020642;28;20050;-82
2021/09/21 00:29:29;;;;;;;5.63;1.60;;;5.70;99.90;;;;;;5005020;28;20049;-82
2021/09/21 00:32:00;;;;;;;5.15;1.63;;;5.70;99.90;;;;;;5005375;28;20045;-81
2021/09/21 00:34:37;;;;;;;1.73;1.33;;;5.60;99.90;;;;;;5008016;28;20042;-81
2021/09/21 00:37:05;;;;;;;2.53;1.15;;;5.50;99.90;;;;;;5020683;28;20133;-81
2021/09/21 00:39:32;;;;;;;2.75;1.48;;;5.50;99.90;;;;;;5010082;28;20076;-81
2021/09/21 00:42:00;;;;;;;9.63;1.77;;;5.40;99.90;;;;;;5022244;28;20056;-81
2021/09/21 00:44:27;;;;;;;2.97;1.50;;;5.40;99.90;;;;;;5008207;28;20438;-82
2021/09/21 00:46:54;;;;;;;5.82;1.98;;;5.30;99.90;;;;;;5003643;28;20129;-82
2021/09/21 00:49:21;;;;;;;1.65;1.48;;;5.30;99.90;;;;;;5018482;28;20616;-82
2021/09/21 00:51:48;;;;;;;1.55;1.38;;;5.30;99.90;;;;;;5008039;28;20069;-82
2021/09/21 00:54:15;;;;;;;3.97;2.05;;;5.30;99.90;;;;;;5008147;28;20073;-82
2021/09/21 00:56:42;;;;;;;1.50;1.10;;;5.30;99.90;;;;;;5010259;28;20543;-82
2021/09/21 00:59:09;;;;;;;6.07;1.25;;;5.20;99.90;;;;;;5006771;28;20058;-82
2021/09/21 01:02:02;;;;;;;3.78;1.88;;;5.20;99.90;;;;;;5020394;23;20100;-78
2021/09/21 01:04:31;;;;;;;4.35;1.55;;;5.20;99.90;;;;;;4941834;28;20102;-79
2021/09/21 01:06:58;;;;;;;8.88;2.00;;;5.20;99.90;;;;;;4945925;28;20476;-79
2021/09/21 01:09:28;;;;;;;2.10;1.30;;;5.10;99.90;;;;;;4959880;28;20126;-80
2021/09/21 01:12:06;;;;;;;2.88;1.65;;;5.10;99.90;;;;;;3366466;28;10021572;-79
2021/09/21 01:14:33;;;;;;;4.25;1.45;;;5.10;99.90;;;;;;2216893;28;10001865;-80
2021/09/21 01:17:00;;;;;;;3.30;1.70;;;5.20;99.90;;;;;;4938614;28;20044;-79
2021/09/21 01:19:27;;;;;;;5.68;1.80;;;5.10;99.90;;;;;;4926322;28;20178;-79
2021/09/21 01:21:54;;;;;;;3.15;1.55;;;5.10;99.90;;;;;;4906332;28;20059;-79
2021/09/21 01:24:22;;;;;;;3.42;1.90;;;5.10;99.90;;;;;;4898819;29;20062;-80
2021/09/21 01:26:49;;;;;;;2.28;1.38;;;5.00;99.90;;;;;;4914115;28;20044;-80
2021/09/21 01:29:16;;;;;;;3.22;1.63;;;5.00;99.90;;;;;;4895868;29;20118;-79
2021/09/21 01:31:43;;;;;;;2.10;1.48;;;4.90;99.90;;;;;;4911434;28;20110;-79
2021/09/21 01:34:18;;;;;;;1.60;1.50;;;4.90;99.90;;;;;;4910726;28;20075;-80
2021/09/21 01:36:45;;;;;;;4.90;1.83;;;4.90;99.90;;;;;;4912266;28;20057;-80
2021/09/21 01:39:12;;;;;;;5.72;1.92;;;4.90;99.90;;;;;;4897019;29;20507;-80
2021/09/21 01:41:39;;;;;;;5.07;1.27;;;4.90;99.90;;;;;;4905266;28;20055;-79
2021/09/21 01:44:06;;;;;;;3.08;1.75;;;4.90;99.90;;;;;;4932803;28;20530;-79
2021/09/21 01:46:33;;;;;;;2.20;1.85;;;4.80;99.90;;;;;;4931968;28;20827;-79
2021/09/21 01:49:00;;;;;;;2.45;1.65;;;4.80;99.90;;;;;;4920281;28;20058;-80
2021/09/21 01:54:18;;;;;;;1.63;1.52;;;4.70;99.90;;;;;;4950822;28;20043;-80
2021/09/21 01:59:31;;;;;;;3.78;1.80;;;4.70;99.90;;;;;;4949266;28;20098;-79
2021/09/21 02:01:57;;;;;;;3.97;1.65;;;4.60;99.90;;;;;;4975680;28;20123;-80
2021/09/21 02:04:25;;;;;;;2.67;1.60;;;4.60;99.90;;;;;;4968785;28;20047;-80
2021/09/21 02:06:53;;;;;;;3.83;1.63;;;4.50;99.90;;;;;;4938539;28;20082;-80
2021/09/21 02:09:21;;;;;;;2.35;1.27;;;4.50;99.90;;;;;;4967417;28;20051;-79
2021/09/21 02:11:48;;;;;;;1.60;1.23;;;4.50;99.90;;;;;;4966021;28;20070;-79
2021/09/21 02:14:16;;;;;;;6.13;2.25;;;4.50;99.90;;;;;;4947808;28;20074;-79
2021/09/21 02:16:43;;;;;;;2.60;1.48;;;4.40;99.90;;;;;;4935356;29;20074;-79
2021/09/21 02:19:10;;;;;;;10.18;2.67;;;4.40;99.90;;;;;;4948207;28;20122;-79
2021/09/21 02:21:37;;;;;;;2.28;1.80;;;4.40;99.90;;;;;;4967227;28;20043;-79
2021/09/21 02:24:05;;;;;;;4.90;1.63;;;4.30;99.90;;;;;;4951969;28;20047;-79
2021/09/21 02:26:32;;;;;;;1.70;1.52;;;4.30;99.90;;;;;;4952122;28;20043;-79
2021/09/21 02:29:00;;;;;;;2.25;1.45;;;4.30;99.90;;;;;;4947643;28;20051;-79
2021/09/21 02:31:27;;;;;;;3.40;1.38;;;4.30;99.90;;;;;;4951037;28;20134;-79
2021/09/21 02:33:53;;;;;;;7.10;2.22;;;4.30;99.90;;;;;;4949728;28;20051;-79
2021/09/21 02:36:21;;;;;;;4.70;2.28;;;4.30;99.90;;;;;;4949290;28;20138;-79
2021/09/21 02:38:47;;;;;;;2.78;1.35;;;4.30;99.90;;;;;;4949800;28;20047;-79
2021/09/21 02:41:14;;;;;;;5.32;2.35;;;4.30;99.90;;;;;;4949304;28;20135;-79
2021/09/21 02:43:41;;;;;;;5.00;1.90;;;4.30;99.90;;;;;;4949027;28;20043;-79
2021/09/21 02:46:08;;;;;;;4.10;2.15;;;4.30;99.90;;;;;;4949890;28;20051;-80
2021/09/21 02:48:35;;;;;;;3.28;1.88;;;4.20;99.90;;;;;;4968315;28;20078;-80
2021/09/21 02:51:03;;;;;;;4.28;3.50;;;4.20;99.90;;;;;;4964335;28;20415;-81
2021/09/21 02:53:30;;;;;;;5.07;1.95;;;4.20;99.90;;;;;;4968212;28;20043;-80
2021/09/21 02:55:57;;;;;;;1.50;1.27;;;4.20;99.90;;;;;;4936333;29;20062;-80
2021/09/21 02:58:24;;;;;;;1.98;1.88;;;4.20;99.90;;;;;;4951808;28;20075;-80
2021/09/21 03:00:54;;;;;;;3.58;1.50;;;4.20;99.90;;;;;;4950169;28;20048;-83
2021/09/21 03:03:25;;;;;;;4.00;1.60;;;4.20;99.90;;;;;;4933676;28;20061;-82
2021/09/21 03:05:57;;;;;;;3.83;1.52;;;4.10;99.90;;;;;;4957394;28;20110;-83
2021/09/21 03:08:28;;;;;;;2.38;1.83;;;4.10;99.90;;;;;;4955236;28;20090;-83
2021/09/21 03:11:11;;;;;;;3.25;1.67;;;4.10;99.90;;;;;;4968292;28;20039;-82
2021/09/21 03:18:52;;;;;;;2.63;2.17;;;4.10;99.90;;;;;;4950082;28;20047;-83
2021/09/21 03:21:19;;;;;;;1.67;1.58;;;4.10;99.90;;;;;;4951366;29;20117;-83
2021/09/21 03:23:46;;;;;;;3.78;1.77;;;4.00;99.90;;;;;;4948658;28;20697;-83
2021/09/21 03:26:13;;;;;;;5.28;1.85;;;4.00;99.90;;;;;;4966036;28;20085;-83
2021/09/21 03:28:40;;;;;;;2.20;1.92;;;4.00;99.90;;;;;;4937818;29;20610;-80
2021/09/21 03:31:07;;;;;;;4.55;1.77;;;3.90;99.90;;;;;;4963193;28;20579;-80
2021/09/21 03:33:34;;;;;;;1.85;1.73;;;3.90;99.90;;;;;;4948622;28;20059;-79
2021/09/21 03:36:01;;;;;;;5.25;2.05;;;3.90;99.90;;;;;;4965981;28;20590;-79
2021/09/21 03:38:28;;;;;;;3.83;2.65;;;3.90;99.90;;;;;;4950418;28;20123;-80
2021/09/21 03:40:55;;;;;;;5.70;2.03;;;3.80;99.90;;;;;;4952628;28;20051;-79
2021/09/21 03:43:22;;;;;;;4.15;1.90;;;3.80;99.90;;;;;;4947661;29;20106;-80
2021/09/21 03:45:49;;;;;;;2.85;2.35;;;3.80;99.90;;;;;;4950294;28;20082;-80
2021/09/21 03:48:16;;;;;;;3.28;2.13;;;3.80;99.90;;;;;;4951702;28;20055;-79
2021/09/21 03:50:43;;;;;;;5.03;2.20;;;3.70;99.90;;;;;;4949679;28;20138;-79
2021/09/21 03:53:10;;;;;;;2.33;2.13;;;3.70;99.90;;;;;;4945149;28;20463;-81
2021/09/21 03:55:37;;;;;;;6.10;2.13;;;3.70;99.90;;;;;;4948936;28;20051;-80
2021/09/21 03:58:04;;;;;;;2.97;2.05;;;3.60;99.90;;;;;;4951130;28;20051;-79
2021/09/21 04:00:31;;;;;;;6.35;3.13;;;3.60;99.90;;;;;;4951572;28;20078;-80
2021/09/21 04:02:58;;;;;;;2.65;1.95;;;3.60;99.90;;;;;;4963552;28;20110;-79
2021/09/21 04:05:25;;;;;;;2.45;2.03;;;3.60;99.90;;;;;;4965221;28;20051;-80
2021/09/21 04:07:52;;;;;;;3.75;1.77;;;3.60;99.90;;;;;;4943794;28;20055;-80
2021/09/21 04:10:19;;;;;;;3.30;2.03;;;3.60;99.90;;;;;;4949487;28;20051;-79
2021/09/21 04:12:46;;;;;;;3.55;1.92;;;3.60;99.90;;;;;;4949478;28;20672;-80
2021/09/21 04:15:13;;;;;;;7.15;2.22;;;3.50;99.90;;;;;;4946215;28;20547;-79
2021/09/21 04:17:41;;;;;;;5.65;2.92;;;3.50;99.90;;;;;;4946228;28;20102;-79
2021/09/21 04:20:08;;;;;;;4.93;2.15;;;3.50;99.90;;;;;;4948611;28;20063;-79
2021/09/21 04:22:37;;;;;;;3.42;2.15;;;3.50;99.90;;;;;;4951258;28;20424;-80
2021/09/21 04:25:05;;;;;;;10.63;3.00;;;3.50;99.90;;;;;;4960948;28;20449;-80
2021/09/21 04:27:33;;;;;;;6.50;2.28;;;3.50;99.90;;;;;;4950761;28;20048;-80
2021/09/21 04:30:00;;;;;;;4.32;2.38;;;3.40;99.90;;;;;;4959162;28;20048;-79
2021/09/21 04:32:28;;;;;;;5.10;2.85;;;3.40;99.90;;;;;;4950546;28;20103;-80
2021/09/21 04:34:55;;;;;;;4.95;2.17;;;3.30;99.90;;;;;;4950146;28;20070;-79
2021/09/21 04:37:22;;;;;;;6.32;2.00;;;3.30;99.90;;;;;;4965690;28;20047;-79
2021/09/21 04:39:49;;;;;;;5.82;1.88;;;3.30;99.90;;;;;;4949818;28;20584;-80
2021/09/21 04:42:21;;;;;;;3.40;1.92;;;3.30;99.90;;;;;;4950748;28;20480;-79
2021/09/21 04:44:49;;;;;;;5.72;2.90;;;3.30;99.90;;;;;;4963011;28;20047;-79
2021/09/21 04:47:16;;;;;;;3.53;2.58;;;3.30;99.90;;;;;;4961395;28;20567;-79
2021/09/21 04:49:43;;;;;;;2.53;2.03;;;3.30;99.90;;;;;;4965525;28;20043;-79
2021/09/21 04:52:10;;;;;;;4.35;2.67;;;3.30;99.90;;;;;;4951350;28;20055;-79
2021/09/21 04:54:37;;;;;;;7.38;2.72;;;3.30;99.90;;;;;;4965206;28;20150;-80
2021/09/21 04:57:04;;;;;;;4.40;2.28;;;3.30;99.90;;;;;;4938079;28;20055;-79
2021/09/21 04:59:31;;;;;;;4.10;2.28;;;3.30;99.90;;;;;;4954505;28;20535;-79
2021/09/21 05:01:58;;;;;;;6.32;3.35;;;3.30;99.90;;;;;;4950940;28;20043;-79
2021/09/21 05:04:25;;;;;;;3.33;2.50;;;3.30;99.90;;;;;;4958177;28;20572;-79
2021/09/21 05:06:52;;;;;;;4.22;2.75;;;3.30;99.90;;;;;;4964305;28;20055;-80
2021/09/21 05:09:19;;;;;;;5.15;3.50;;;3.30;99.90;;;;;;4948622;28;20056;-80
2021/09/21 05:11:46;;;;;;;5.00;3.47;;;3.30;99.90;;;;;;4962997;28;20043;-79
2021/09/21 05:14:13;;;;;;;2.97;2.67;;;3.30;99.90;;;;;;4953057;28;20555;-80
2021/09/21 05:16:41;;;;;;;6.65;2.88;;;3.30;99.90;;;;;;4951751;28;20051;-80
2021/09/21 05:19:11;;;;;;;5.28;2.53;;;3.30;99.90;;;;;;4956650;28;22787;-81
2021/09/21 05:21:39;;;;;;;16.63;5.68;;;3.40;99.90;;;;;;4965200;28;20423;-83
2021/09/21 05:24:07;;;;;;;2.72;2.50;;;3.40;99.90;;;;;;4952646;28;20488;-80
2021/09/21 05:26:37;;;;;;;9.60;4.68;;;3.50;99.90;;;;;;4933804;29;20739;-81
2021/09/21 05:29:04;;;;;;;4.50;2.95;;;3.50;99.90;;;;;;4967944;28;20083;-81
2021/09/21 05:31:32;;;;;;;4.68;2.53;;;3.60;99.90;;;;;;4956395;28;20051;-81
2021/09/21 05:34:00;;;;;;;5.72;3.42;;;3.60;99.90;;;;;;4954754;28;20036;-82
2021/09/21 05:36:27;;;;;;;3.63;2.70;;;3.70;99.90;;;;;;4951878;28;20043;-82
2021/09/21 05:38:55;;;;;;;6.65;4.80;;;3.70;99.90;;;;;;4949774;28;20047;-82
2021/09/21 05:41:22;;;;;;;10.60;5.20;;;3.80;99.90;;;;;;4951133;28;20122;-82
2021/09/21 05:43:49;;;;;;;14.95;8.77;;;3.90;99.90;;;;;;4952315;28;20346;-82
2021/09/21 05:46:16;;;;;;;17.73;8.48;;;4.00;99.90;;;;;;4954713;28;20067;-81
2021/09/21 05:48:43;;;;;;;27.15;11.13;;;4.00;99.90;;;;;;4949078;28;20113;-81
2021/09/21 05:51:10;;;;;;;21.20;12.07;;;4.20;99.90;;;;;;4948838;28;20055;-81
2021/09/21 05:53:37;;;;;;;16.80;9.27;;;4.30;99.90;;;;;;4947909;28;20047;-81
2021/09/21 05:56:04;;;;;;;28.33;9.43;;;4.40;99.90;;;;;;4946405;28;20119;-81
2021/09/21 05:58:31;;;;;;;20.77;9.48;;;4.50;99.90;;;;;;4966240;28;20049;-82
2021/09/21 06:00:58;;;;;;;12.35;8.60;;;4.50;99.90;;;;;;4928538;28;20055;-81
2021/09/21 06:03:26;;;;;;;10.10;7.03;;;4.60;99.90;;;;;;4939472;29;20051;-82
2021/09/21 06:05:54;;;;;;;20.13;5.68;;;4.80;99.90;;;;;;4948543;28;20059;-82
2021/09/21 06:08:23;;;;;;;10.55;5.30;;;4.90;99.90;;;;;;4959332;28;20043;-81
2021/09/21 06:10:50;;;;;;;11.55;5.97;;;5.00;99.90;;;;;;4946612;28;20070;-81
2021/09/21 06:13:17;;;;;;;10.85;4.30;;;5.10;99.90;;;;;;4955221;28;20466;-81
2021/09/21 06:15:45;;;;;;;12.90;4.50;;;5.20;99.90;;;;;;4932293;29;20090;-80
2021/09/21 06:18:12;;;;;;;7.95;5.07;;;5.40;99.90;;;;;;4951714;28;20043;-82
2021/09/21 06:20:41;;;;;;;9.30;5.10;;;5.50;99.90;;;;;;4949701;28;20058;-79
2021/09/21 06:23:08;;;;;;;15.07;5.20;;;5.60;99.90;;;;;;4947100;28;20055;-79
2021/09/21 06:25:37;;;;;;;6.07;4.18;;;5.70;99.90;;;;;;4962137;28;20043;-79
2021/09/21 06:28:05;;;;;;;6.82;4.03;;;5.90;99.90;;;;;;4965218;28;20047;-80
2021/09/21 06:30:33;;;;;;;6.30;4.40;;;6.10;99.90;;;;;;4953268;28;20098;-79
2021/09/21 06:33:00;;;;;;;12.57;4.38;;;6.20;99.90;;;;;;4949494;28;20049;-79
2021/09/21 06:35:27;;;;;;;17.00;5.55;;;6.30;99.90;;;;;;4960605;28;20547;-80
2021/09/21 06:37:55;;;;;;;8.63;4.28;;;6.60;99.90;;;;;;4952250;28;20106;-79
2021/09/21 06:40:22;;;;;;;5.50;3.55;;;6.70;99.90;;;;;;4950139;28;20051;-79
2021/09/21 06:42:49;;;;;;;6.20;3.92;;;6.90;99.90;;;;;;4950664;28;20055;-82
2021/09/21 06:45:16;;;;;;;6.57;3.90;;;7.10;99.90;;;;;;4954430;28;20059;-81
2021/09/21 06:47:44;;;;;;;10.38;3.30;;;7.40;99.90;;;;;;4968406;28;20047;-80
2021/09/21 06:50:12;;;;;;;8.35;4.95;;;7.50;99.90;;;;;;4952282;28;20059;-81
2021/09/21 06:52:39;;;;;;;4.35;3.90;;;7.60;99.90;;;;;;4954594;28;20051;-81
2021/09/21 06:55:08;;;;;;;4.22;2.60;;;7.70;99.90;;;;;;4950678;28;20039;-80
2021/09/21 06:57:35;;;;;;;4.68;3.55;;;7.90;99.90;;;;;;4967063;28;20560;-81
2021/09/21 07:00:06;;;;;;;4.10;2.35;;;8.00;99.90;;;;;;4952126;28;20043;-80
2021/09/21 07:02:33;;;;;;;5.63;3.03;;;8.10;99.90;;;;;;4969227;28;20047;-80
2021/09/21 07:05:01;;;;;;;7.85;3.00;;;8.20;99.90;;;;;;4934107;28;20052;-80
2021/09/21 07:07:29;;;;;;;4.72;2.25;;;8.30;99.90;;;;;;4950193;28;20092;-80
2021/09/21 07:09:56;;;;;;;2.03;1.58;;;8.50;99.90;;;;;;4936864;29;20047;-80
2021/09/21 07:12:23;;;;;;;2.30;2.05;;;8.70;99.90;;;;;;4950599;28;20062;-81
2021/09/21 07:14:50;;;;;;;5.15;2.72;;;8.80;99.90;;;;;;4949136;28;20605;-81
2021/09/21 07:17:16;;;;;;;7.55;3.10;;;8.80;99.90;;;;;;4952081;28;20047;-81
2021/09/21 07:19:43;;;;;;;3.03;1.73;;;8.90;99.90;;;;;;4931885;29;20405;-81
2021/09/21 07:22:10;;;;;;;7.25;2.03;;;9.00;99.90;;;;;;4952608;28;20045;-80
2021/09/21 07:24:37;;;;;;;2.58;1.58;;;9.10;99.90;;;;;;4952796;28;20488;-80
2021/09/21 07:27:04;;;;;;;2.75;1.92;;;9.20;99.90;;;;;;4967025;28;20043;-80
2021/09/21 07:29:31;;;;;;;5.18;2.00;;;9.30;99.90;;;;;;4960590;28;20062;-81
2021/09/21 07:31:58;;;;;;;1.80;1.40;;;9.40;99.90;;;;;;4938408;29;20043;-81
2021/09/21 07:34:25;;;;;;;3.10;2.08;;;9.40;99.90;;;;;;4975883;28;20074;-81
2021/09/21 07:36:52;;;;;;;1.30;1.20;;;9.50;99.90;;;;;;4950668;28;20051;-81
2021/09/21 07:39:23;;;;;;;1.20;0.98;;;9.50;99.90;;;;;;4937262;29;20039;-80
2021/09/21 07:41:50;;;;;;;3.15;2.85;;;9.60;99.90;;;;;;4968727;28;20047;-80
2021/09/21 07:44:18;;;;;;;1.95;1.30;;;9.70;99.90;;;;;;4969032;28;20063;-81
2021/09/21 07:46:45;;;;;;;5.10;1.90;;;9.70;99.90;;;;;;4937037;29;20062;-81
2021/09/21 07:49:12;;;;;;;3.88;1.35;;;9.70;99.90;;;;;;4949290;28;20047;-81
2021/09/21 07:51:40;;;;;;;4.00;1.95;;;9.80;99.90;;;;;;4961211;28;20066;-81
2021/09/21 07:54:08;;;;;;;3.03;2.13;;;9.80;99.90;;;;;;4953285;28;20059;-81
2021/09/21 07:56:36;;;;;;;3.20;1.77;;;9.90;99.90;;;;;;4933453;29;20051;-81
2021/09/21 07:59:05;;;;;;;3.08;1.92;;;10.00;99.90;;;;;;4951354;28;20547;-81
2021/09/21 08:01:33;;;;;;;1.67;1.58;;;10.00;99.90;;;;;;4949730;28;20119;-81
2021/09/21 08:04:04;;;;;;;4.20;1.45;;;10.10;99.90;;;;;;4955360;28;20051;-81
2021/09/21 08:06:31;;;;;;;4.45;1.70;;;10.10;99.90;;;;;;4954564;28;20055;-81
2021/09/21 08:08:59;;;;;;;3.25;1.20;;;10.20;99.90;;;;;;4958527;28;20051;-80
2021/09/21 08:11:27;;;;;;;1.65;1.30;;;10.20;99.90;;;;;;4953893;28;20146;-81
2021/09/21 08:13:54;;;;;;;6.63;1.10;;;10.20;99.90;;;;;;4952877;28;20047;-81
2021/09/21 08:16:29;;;;;;;2.25;1.38;;;10.10;99.90;;;;;;4950573;28;20054;-80
2021/09/21 08:18:56;;;;;;;4.30;1.67;;;10.20;99.90;;;;;;4950318;28;20102;-81
2021/09/21 08:21:26;;;;;;;1.95;1.30;;;10.20;99.90;;;;;;4967089;28;20123;-81
2021/09/21 08:23:53;;;;;;;3.10;1.40;;;10.30;99.90;;;;;;4957400;28;20617;-81
2021/09/21 08:26:21;;;;;;;2.35;1.30;;;10.30;99.90;;;;;;4956446;28;20039;-81
2021/09/21 08:28:50;;;;;;;1.90;1.52;;;10.30;99.90;;;;;;4970428;28;20053;-81
2021/09/21 08:31:17;;;;;;;1.63;1.33;;;10.30;99.90;;;;;;4951931;28;20055;-82
2021/09/21 08:33:47;;;;;;;3.60;1.73;;;10.30;99.90;;;;;;4950600;28;20754;-81
2021/09/21 08:36:22;;;;;;;4.63;1.38;;;10.30;99.90;;;;;;4964428;28;20336;-80
2021/09/21 08:38:50;;;;;;;2.35;1.15;;;10.40;99.90;;;;;;4970400;28;20413;-80
2021/09/21 08:41:18;;;;;;;5.35;1.52;;;10.40;99.90;;;;;;4951162;28;20051;-80
2021/09/21 08:43:45;;;;;;;2.28;1.30;;;10.40;99.90;;;;;;4948302;28;20070;-80
2021/09/21 08:46:13;;;;;;;1.50;1.40;;;10.50;99.90;;;;;;4947178;28;20504;-80
2021/09/21 08:48:40;;;;;;;1.98;1.60;;;10.50;99.90;;;;;;4966761;28;20043;-81
2021/09/21 08:51:07;;;;;;;3.72;1.30;;;10.60;99.90;;;;;;4930418;28;20051;-80
2021/09/21 08:53:34;;;;;;;1.30;1.20;;;10.60;99.90;;;;;;4965004;28;20043;-80
2021/09/21 08:56:01;;;;;;;6.32;1.88;;;10.60;99.90;;;;;;4950470;28;20047;-80
2021/09/21 08:58:28;;;;;;;1.40;1.17;;;10.70;99.90;;;;;;4963346;28;20118;-81
2021/09/21 09:00:55;;;;;;;1.27;1.17;;;10.80;99.90;;;;;;4931939;28;20420;-81
2021/09/21 09:03:23;;;;;;;3.20;1.55;;;10.90;99.90;;;;;;4950863;28;20509;-81
2021/09/21 09:05:56;;;;;;;2.00;1.10;;;10.90;99.90;;;;;;4967031;28;20161;-81
2021/09/21 09:08:34;;;;;;;2.60;1.25;;;10.90;99.90;;;;;;4965107;28;20043;-81
2021/09/21 09:11:23;;;;;;;1.15;1.05;;;10.90;99.90;;;;;;4963341;28;20154;-80
2021/09/21 09:13:53;;;;;;;2.40;1.70;;;10.80;99.90;;;;;;4949683;28;20047;-81
2021/09/21 09:16:22;;;;;;;1.38;1.25;;;10.80;99.90;;;;;;4963571;28;20051;-81
2021/09/21 09:19:01;;;;;;;1.60;1.50;;;10.90;99.90;;;;;;4949064;28;20048;-81
2021/09/21 09:21:31;;;;;;;1.67;1.58;;;10.80;99.90;;;;;;4961205;28;20090;-80
2021/09/21 09:23:59;;;;;;;1.50;1.40;;;10.80;99.90;;;;;;4969575;28;20040;-80
2021/09/21 09:26:27;;;;;;;4.10;2.13;;;10.80;99.90;;;;;;4967607;28;20043;-80
2021/09/21 09:28:55;;;;;;;3.10;1.50;;;10.80;99.90;;;;;;4955669;28;20579;-81
2021/09/21 09:31:29;;;;;;;1.33;1.23;;;10.80;99.90;;;;;;4950421;28;20044;-80
2021/09/21 09:34:09;;;;;;;1.33;1.00;;;10.90;99.90;;;;;;4956148;28;20045;-81
2021/09/21 09:37:04;;;;;;;1.38;1.27;;;10.90;99.90;;;;;;4937559;28;20433;-81
2021/09/21 09:39:31;;;;;;;1.77;1.33;;;10.90;99.90;;;;;;4931066;29;20043;-81
2021/09/21 09:42:02;;;;;;;1.25;1.13;;;11.00;99.90;;;;;;4948648;29;20444;-81
2021/09/21 09:44:32;;;;;;;1.48;1.05;;;11.00;99.90;;;;;;4951168;28;20050;-81
2021/09/21 09:47:05;;;;;;;2.28;1.45;;;11.10;99.90;;;;;;4931712;28;20062;-80
2021/09/21 09:49:50;;;;;;;2.35;1.48;;;11.10;99.90;;;;;;4949218;28;20106;-81
2021/09/21 09:52:19;;;;;;;4.55;1.30;;;11.20;99.90;;;;;;4935046;29;20060;-81
2021/09/21 09:54:48;;;;;;;1.20;1.10;;;11.30;99.90;;;;;;4936724;29;20568;-81
2021/09/21 09:57:16;;;;;;;3.15;1.70;;;11.40;99.90;;;;;;4948705;28;20512;-80
2021/09/21 09:59:43;;;;;;;1.45;1.20;;;11.50;99.90;;;;;;4937124;28;20093;-80
2021/09/21 10:02:12;;;;;;;1.60;1.33;;;11.60;99.90;;;;;;4967969;28;20114;-81
2021/09/21 10:04:41;;;;;;;1.30;1.20;;;11.70;99.90;;;;;;4954559;28;20393;-80
2021/09/21 10:07:09;;;;;;;3.22;1.17;;;11.80;99.90;;;;;;4955774;28;20055;-80
2021/09/21 10:09:37;;;;;;;1.65;1.05;;;11.70;99.90;;;;;;4955010;28;20134;-81
2021/09/21 10:12:05;;;;;;;2.90;1.08;;;11.80;99.90;;;;;;4973704;28;20482;-80
2021/09/21 10:14:32;;;;;;;1.10;0.93;;;11.90;99.90;;;;;;4950550;28;20139;-80
2021/09/21 10:17:02;;;;;;;1.17;0.93;;;12.00;99.90;;;;;;4969441;28;20051;-80
2021/09/21 10:19:31;;;;;;;3.53;1.27;;;11.90;99.90;;;;;;4956189;28;20070;-80
2021/09/21 10:21:58;;;;;;;2.55;1.08;;;12.00;99.90;;;;;;4954478;28;20074;-80
2021/09/21 10:24:40;;;;;;;1.75;1.30;;;12.10;99.90;;;;;;4958259;28;20054;-80
2021/09/21 10:27:11;;;;;;;1.17;1.10;;;12.20;99.90;;;;;;4965812;28;20059;-80
2021/09/21 10:29:39;;;;;;;1.67;1.30;;;12.30;99.90;;;;;;4953063;28;20053;-81
2021/09/21 10:32:12;;;;;;;1.65;0.98;;;12.40;99.90;;;;;;4972342;28;20043;-80
2021/09/21 10:34:41;;;;;;;1.42;0.80;;;12.50;99.90;;;;;;4952602;28;20089;-81
2021/09/21 10:37:09;;;;;;;3.40;1.27;;;12.40;99.90;;;;;;4933393;28;21148;-80
2021/09/21 10:39:36;;;;;;;1.40;0.93;;;12.40;99.90;;;;;;4968251;28;20087;-80
2021/09/21 10:42:12;;;;;;;2.22;1.20;;;12.40;99.90;;;;;;4954197;28;20555;-81
2021/09/21 10:44:50;;;;;;;3.20;1.27;;;12.40;99.90;;;;;;4962134;28;20102;-81
2021/09/21 10:47:24;;;;;;;1.45;1.35;;;12.50;99.90;;;;;;4969309;28;20082;-81
2021/09/21 10:50:07;;;;;;;1.52;1.10;;;12.50;99.90;;;;;;4952896;28;20636;-81
2021/09/21 10:52:34;;;;;;;2.60;1.33;;;12.60;99.90;;;;;;4970593;28;20122;-81
2021/09/21 10:55:09;;;;;;;1.15;1.00;;;12.70;99.90;;;;;;4953198;28;20090;-81
2021/09/21 10:57:43;;;;;;;1.45;0.98;;;12.70;99.90;;;;;;4950587;28;20507;-80
2021/09/21 11:00:16;;;;;;;1.48;1.10;;;12.70;99.90;;;;;;4950039;28;20051;-81
2021/09/21 11:02:45;;;;;;;1.15;1.05;;;12.70;99.90;;;;;;4966259;28;20114;-79
2021/09/21 11:05:17;;;;;;;4.25;1.38;;;12.60;99.90;;;;;;4950588;28;20373;-79
2021/09/21 11:08:02;;;;;;;1.38;1.17;;;12.50;99.90;;;;;;4953818;28;20098;-79
2021/09/21 11:10:43;;;;;;;3.90;1.38;;;12.50;99.90;;;;;;4953159;28;20169;-79
2021/09/21 11:13:16;;;;;;;1.50;1.00;;;12.20;99.90;;;;;;4941796;28;20066;-79
2021/09/21 11:15:45;;;;;;;1.20;1.08;;;12.20;99.90;;;;;;4953175;28;20047;-79
2021/09/21 11:18:18;;;;;;;2.10;1.38;;;12.10;99.90;;;;;;4967486;28;20056;-80
2021/09/21 11:20:55;;;;;;;1.30;1.00;;;12.20;99.90;;;;;;4975118;28;20047;-79
2021/09/21 11:23:28;;;;;;;1.25;0.80;;;12.20;99.90;;;;;;4960155;28;20083;-80
2021/09/21 11:25:59;;;;;;;1.83;1.08;;;12.10;99.90;;;;;;4969964;28;20040;-79
2021/09/21 11:28:29;;;;;;;3.60;1.25;;;11.90;99.90;;;;;;4949929;28;20051;-79
2021/09/21 11:30:57;;;;;;;1.50;1.13;;;11.80;99.90;;;;;;4963319;28;20495;-79
2021/09/21 11:33:27;;;;;;;1.75;1.42;;;11.80;99.90;;;;;;4953766;28;20050;-79
2021/09/21 11:35:58;;;;;;;5.27;1.20;;;11.80;99.90;;;;;;4968000;28;20094;-79
2021/09/21 11:38:30;;;;;;;3.00;0.98;;;11.90;99.90;;;;;;4969016;28;20524;-79
2021/09/21 11:40:57;;;;;;;1.02;0.93;;;11.90;99.90;;;;;;4967217;28;20047;-79
2021/09/21 11:43:28;;;;;;;1.45;1.23;;;11.90;99.90;;;;;;4964992;28;20059;-79
2021/09/21 11:45:56;;;;;;;2.33;1.30;;;11.90;99.90;;;;;;4953042;28;20043;-80
2021/09/21 11:48:24;;;;;;;1.38;1.05;;;11.90;99.90;;;;;;4955840;28;20059;-80
2021/09/21 11:50:52;;;;;;;3.40;1.77;;;12.00;99.90;;;;;;4951264;28;20066;-79
2021/09/21 11:53:23;;;;;;;1.30;1.20;;;12.00;99.90;;;;;;4965238;28;20055;-79
2021/09/21 11:55:54;;;;;;;2.10;1.65;;;12.00;99.90;;;;;;4968895;28;20047;-79
2021/09/21 11:58:30;;;;;;;2.15;1.75;;;12.10;99.90;;;;;;4950093;28;20055;-79
2021/09/21 12:01:05;;;;;;;1.95;1.75;;;12.10;99.90;;;;;;4962890;28;20051;-79
2021/09/21 12:03:34;;;;;;;1.05;0.95;;;12.20;99.90;;;;;;4950243;28;20054;-80
2021/09/21 12:06:03;;;;;;;1.83;0.90;;;12.20;99.90;;;;;;4935726;29;20043;-79
2021/09/21 12:08:38;;;;;;;2.05;1.15;;;12.20;99.90;;;;;;4951234;28;20075;-79
2021/09/21 12:11:11;;;;;;;1.50;1.05;;;12.20;99.90;;;;;;4949104;28;20581;-80
2021/09/21 12:13:38;;;;;;;1.65;1.30;;;12.20;99.90;;;;;;4958513;28;20074;-80
2021/09/21 12:16:08;;;;;;;4.15;1.00;;;12.20;99.90;;;;;;4949017;28;20051;-79
2021/09/21 12:18:40;;;;;;;11.85;1.50;;;12.20;99.90;;;;;;4955311;28;20113;-79
2021/09/21 12:21:14;;;;;;;0.82;0.77;;;12.20;99.90;;;;;;4948162;28;20059;-79
2021/09/21 12:23:44;;;;;;;1.73;1.48;;;12.20;99.90;;;;;;4953171;28;20150;-79
2021/09/21 12:26:13;;;;;;;0.85;0.80;;;12.00;99.90;;;;;;4951105;28;20052;-79
2021/09/21 12:28:52;;;;;;;1.00;0.90;;;12.10;99.90;;;;;;4967472;28;20055;-79
2021/09/21 12:31:25;;;;;;;4.07;1.02;;;12.10;99.90;;;;;;4944316;28;20055;-79
2021/09/21 12:33:56;;;;;;;1.23;1.13;;;12.00;99.90;;;;;;4955450;28;20075;-79
2021/09/21 12:36:30;;;;;;;1.02;0.90;;;12.00;99.90;;;;;;4953315;28;20106;-79
2021/09/21 12:39:02;;;;;;;1.13;1.02;;;12.00;99.90;;;;;;4948575;28;20049;-79
2021/09/21 12:41:36;;;;;;;1.52;1.30;;;11.90;99.90;;;;;;4949920;28;20051;-79
2021/09/21 12:44:06;;;;;;;0.95;0.68;;;12.00;99.90;;;;;;4947728;28;20051;-79
2021/09/21 12:46:35;;;;;;;0.85;0.85;;;11.90;99.90;;;;;;4969050;28;20044;-79
2021/09/21 12:49:03;;;;;;;1.33;1.23;;;11.80;99.90;;;;;;4961182;28;20075;-79
2021/09/21 12:51:36;;;;;;;1.48;1.10;;;11.90;99.90;;;;;;4965457;28;20055;-78
2021/09/21 12:54:06;;;;;;;1.92;1.35;;;12.00;99.90;;;;;;4931244;29;20080;-78
2021/09/21 12:56:33;;;;;;;0.98;0.85;;;11.90;99.90;;;;;;4964162;28;20111;-78
2021/09/21 12:59:12;;;;;;;1.88;1.00;;;12.00;99.90;;;;;;4943673;28;20059;-78
2021/09/21 13:01:41;;;;;;;2.00;1.88;;;12.00;99.90;;;;;;4946017;28;20050;-79
2021/09/21 13:04:09;;;;;;;0.70;0.70;;;12.00;99.90;;;;;;4945266;28;20055;-79
2021/09/21 13:06:37;;;;;;;0.63;0.60;;;12.00;99.90;;;;;;4943293;29;20046;-79
2021/09/21 13:09:06;;;;;;;3.28;0.80;;;11.90;99.90;;;;;;4948198;28;20047;-79
2021/09/21 13:11:33;;;;;;;1.00;0.90;;;11.90;99.90;;;;;;4965024;28;20057;-79